< < Back
Terminal Aerodrome Forecast


Current Version              Previous Versions:   1  2  3  4  5  6  7  8  9  

Terminal Aerodrome Forecast

259
FTUS44 KMOB 292049 AAA
TAFPNS
TAF AMD
KPNS 292049Z 2921/3018 20010KT P6SM VCTS SCT040CB SCT250
     FM300000 27006KT P6SM FEW040 SCT250
     FM300300 31003KT P6SM SCT250=

Latest METAR

535
SAUS70 KWBC 301000 RRD
MTRPNS
METAR KPNS 300953Z AUTO 33005KT 10SM CLR 23/21 A2999 RMK AO2 SLP155
T02280206


USA.gov is the U.S. government's official web portal to all federal, state and local government web resources and services.